ADDS METAR Data INFO
IDs: Format: Raw Decoded Include TAF

Data at: 0457 UTC 25 May 2018

KBYY 250435Z AUTO 00000KT 10SM CLR 23/23 A3002 RMK AO2 T02410233
KBYY 250415Z AUTO 00000KT 10SM CLR 24/23 A3002 RMK AO2 T02450236
KBYY 250355Z AUTO 00000KT 10SM CLR 24/23 A3002 RMK AO2 T02420234
KBYY 250335Z AUTO 09003KT 10SM CLR 24/23 A3001 RMK AO2 T02440231
KBYY 250315Z AUTO 00000KT 10SM CLR 24/23 A3001 RMK AO2 T02450231
KBYY 250255Z AUTO 00000KT 10SM CLR 24/22 A3001 RMK AO2 T02470230
KBYY 250235Z AUTO 10003KT 10SM CLR 25/22 A3000 RMK AO2 T02500230
KBYY 250215Z AUTO 00000KT 10SM CLR 25/22 A2999 RMK AO2 T02540230
KBYY 250155Z AUTO 11004KT 10SM CLR 25/22 A2998 RMK AO2 T02600229
KBYY 250135Z AUTO 12005KT 10SM SCT024 26/22 A2998 RMK AO2 T02670228
KBYY 250115Z AUTO 12007KT 10SM SCT024 27/22 A2998 RMK AO2 T02720229
KBYY 250055Z AUTO 10006KT 10SM CLR 27/23 A2998 RMK AO2 T02780231
KBYY 250035Z AUTO 12005KT 10SM CLR 28/23 A2998 RMK AO2 T02840231
KBYY 250015Z AUTO 11007KT 10SM CLR 28/23 A2998 RMK AO2 T02860232
KBYY 242355Z AUTO 11010KT 10SM SCT021 SCT029 SCT037 28/23 A2997 RMK AO2 T02880236
KBYY 242335Z AUTO 13009KT 10SM BKN025 BKN031 BKN037 28/23 A2998 RMK AO2 T02880236
KBYY 242315Z AUTO 06006KT 10SM BKN025 BKN080 28/23 A2999 RMK AO2 T02950234
KBYY 242255Z AUTO 11005KT 10SM SCT023 30/23 A2998 RMK AO2 T02920231
KBYY 242235Z AUTO 00000KT 10SM CLR 28/22 A2999 RMK AO2 T02820228
KBYY 242215Z AUTO 00000KT 10SM SCT090 SCT110 27/22 A3000 RMK AO2 T02830227
KBYY 242155Z AUTO 15004KT 10SM SCT070 BKN080 28/22 A3001 RMK AO2 T02850225
KBYY 242135Z AUTO 13008KT 10SM SCT070 SCT080 28/22 A3002 RMK AO2 T02880237
KBYY 242115Z AUTO 14009KT 10SM CLR 28/24 A3000 RMK AO2 T02860242
KBYY 242055Z AUTO 14010KT 10SM SCT033 SCT041 SCT050 27/23 A3000 RMK AO2 P0010 T02710238
KBYY 242035Z AUTO 16005KT 7SM -RA SCT032 BKN046 OVC050 25/23 A3001 RMK AO2 P0010 T02550234
KBYY 242015Z AUTO 17007KT 10SM -RA SCT024 BKN029 OVC046 25/23 A3003 RMK AO2 T02560229
KBYY 241955Z AUTO 15016G20KT 10SM SCT026 BKN031 OVC041 27/23 A3003 RMK AO2 T02830229
KBYY 241935Z AUTO 17006KT 10SM SCT032 SCT040 SCT100 30/22 A3002 RMK AO2 T03090232
KBYY 241915Z AUTO 02008KT 10SM SCT038 SCT046 SCT100 31/23 A3003 RMK AO2 T03070229
KBYY 241855Z AUTO 05008KT 10SM SCT038 SCT046 BKN065 30/22 A3003 RMK AO2 T03050228
KBYY 241835Z AUTO 02007KT 10SM SCT038 BKN047 OVC080 30/22 A3003 RMK AO2 T03040222
KBYY 241815Z AUTO 09003KT 10SM BKN034 OVC044 30/22 A3004 RMK AO2 T02970228
KBYY 241755Z AUTO 02005KT 10SM BKN031 BKN040 29/22 A3004 RMK AO2 T02990226
KBYY 241735Z AUTO 06004KT 10SM SCT031 SCT041 SCT050 30/22 A3005 RMK AO2 T03060226
KBYY 241715Z AUTO 08006KT 10SM SCT029 BKN038 BKN047 31/22 A3005 RMK AO2 T03050227
KBYY 241655Z AUTO 07006KT 10SM SCT025 BKN038 BKN060 30/22 A3005 RMK AO2 T03040231
KBYY 241635Z AUTO 05006KT 10SM SCT025 SCT031 SCT040 29/23 A3006 RMK AO2 T02980231
KBYY 241615Z AUTO 10007KT 10SM SCT023 SCT028 29/22 A3006 RMK AO2 T02950232
KBYY 241555Z AUTO 07006KT 10SM SCT021 SCT026 28/23 A3006 RMK AO2 T02900236
KBYY 241535Z AUTO 08008KT 10SM SCT017 SCT023 BKN033 28/23 A3006 RMK AO2 T02850240
KBYY 241515Z AUTO 06007KT 10SM SCT011 SCT021 BKN031 27/24 A3006 RMK AO2 T02740242
KBYY 241455Z AUTO 08006KT 10SM SCT011 SCT017 BKN031 27/24 A3005 RMK AO2 T02760245
KBYY 241435Z AUTO 07008KT 10SM BKN011 BKN017 27/24 A3005 RMK AO2 T02730247
KBYY 241355Z AUTO 06007KT 10SM CLR 25/25 A3005 RMK AO2 T02520251
KBYY 241335Z AUTO 05004KT 10SM CLR 24/24 A3004 RMK AO2 T02430243
KBYY 241315Z AUTO 05005KT 10SM CLR 23/23 A3004 RMK AO2 T02390239
KBYY 241255Z AUTO 04003KT 10SM CLR 23/23 A3004 RMK AO2 T02320232
KBYY 241235Z AUTO 00000KT 7SM CLR 22/22 A3005 RMK AO2 T02270227
KBYY 241215Z AUTO 04003KT 5SM BR CLR 22/22 A3004 RMK AO2 T02210221
KBYY 241155Z AUTO 00000KT 5SM BR CLR 22/22 A3003 RMK AO2 T02200220
KBYY 241135Z AUTO 00000KT 5SM BR CLR 22/22 A3003 RMK AO2 T02200220
KBYY 241115Z AUTO 01003KT 4SM BR CLR 22/22 A3002 RMK AO2 T02220222
KBYY 241055Z AUTO 00000KT 5SM BR CLR 22/22 A3001 RMK AO2 T02240224
KBYY 241035Z AUTO 00000KT 7SM CLR 22/22 A3001 RMK AO2 T02230223
KBYY 241015Z AUTO 00000KT 7SM CLR 22/22 A3001 RMK AO2 T02200220
KBYY 240955Z AUTO 00000KT 5SM BR CLR 22/22 A3002 RMK AO2 T02210221
KBYY 240935Z AUTO 00000KT 5SM BR CLR 22/22 A3001 RMK AO2 T02220222
KBYY 240915Z AUTO 00000KT 5SM BR CLR 22/22 A3001 RMK AO2 T02230223
KBYY 240855Z AUTO 00000KT 5SM BR CLR 22/22 A3002 RMK AO2 T02240224
KBYY 240835Z AUTO 00000KT 7SM CLR 22/22 A3002 RMK AO2 T02270227
KBYY 240815Z AUTO 00000KT 7SM CLR 22/22 A3002 RMK AO2 T02280228
KBYY 240755Z AUTO 06003KT 7SM CLR 22/22 A3002 RMK AO2 T02260226
KBYY 240735Z AUTO 06004KT 5SM BR CLR 22/22 A3003 RMK AO2 T02260226
KBYY 240715Z AUTO 06003KT 7SM CLR 22/22 A3003 RMK AO2 T02280228
KBYY 240655Z AUTO 00000KT 10SM CLR 22/22 A3003 RMK AO2 T02300230
KBYY 240635Z AUTO 00000KT 10SM CLR 22/22 A3003 RMK AO2 T02280228
KBYY 240615Z AUTO 08003KT 10SM CLR 22/22 A3003 RMK AO2 T02280228
KBYY 240555Z AUTO 07003KT 10SM CLR 22/22 A3003 RMK AO2 T02300230
KBYY 240535Z AUTO 06003KT 10SM CLR 23/22 A3003 RMK AO2 T02300229
KBYY 240515Z AUTO 00000KT 10SM CLR 23/22 A3003 RMK AO2 T02330229
KBYY 240455Z AUTO 06003KT 10SM CLR 23/22 A3003 RMK AO2 T02350231
KBYY 240435Z AUTO 06003KT 10SM CLR 23/23 A3003 RMK AO2 T02350231
KBYY 240415Z AUTO 06004KT 10SM CLR 23/23 A3002 RMK AO2 T02370231
KBYY 240355Z AUTO 07004KT 10SM CLR 23/23 A3002 RMK AO2 T02400232
KBYY 240335Z AUTO 11003KT 10SM CLR 23/23 A3001 RMK AO2 T02410234
KBYY 240315Z AUTO 09005KT 10SM CLR 23/23 A3001 RMK AO2 T02410232
KBYY 240255Z AUTO 09003KT 10SM CLR 24/23 A3001 RMK AO2 T02430231
KBYY 240235Z AUTO 08004KT 10SM CLR 24/23 A3000 RMK AO2 T02470232
KBYY 240215Z AUTO 09003KT 10SM CLR 25/23 A3000 RMK AO2 T02500231
KBYY 240155Z AUTO 10004KT 7SM CLR 25/23 A2999 RMK AO2 T02540231
KBYY 240135Z AUTO 10006KT 10SM CLR 25/22 A2999 RMK AO2 T02590230
KBYY 240115Z AUTO 11006KT 10SM CLR 26/22 A2998 RMK AO2 T02640232
KBYY 240055Z AUTO 11006KT 10SM CLR 26/23 A2998 RMK AO2 T02680235
KBYY 240035Z AUTO 10009KT 10SM CLR 27/23 A2998 RMK AO2 T02700233
KBYY 240015Z AUTO 09009KT 10SM CLR 27/23 A2998 RMK AO2 T02710234
KBYY 232355Z AUTO 09006KT 10SM CLR 27/23 A2998 RMK AO2 T02700236
KBYY 232335Z AUTO 08009KT 10SM CLR 26/23 A2998 RMK AO2 T02660237
KBYY 232315Z AUTO 09009KT 5SM HZ CLR 26/23 A2998 RMK AO2 T02650235
KBYY 232255Z AUTO 09009KT 10SM CLR 26/23 A2999 RMK AO2 T02650235
KBYY 232235Z AUTO 07009KT 10SM CLR 26/23 A2998 RMK AO2 T02650233
KBYY 232215Z AUTO 08006KT 10SM CLR 26/23 A2999 RMK AO2 T02640231
KBYY 232155Z AUTO 07006KT 10SM CLR 26/23 A2999 RMK AO2 T02560231
KBYY 232135Z AUTO 08004KT 7SM CLR 25/22 A2999 RMK AO2 T02500229
KBYY 232115Z AUTO 12007KT 10SM CLR 25/22 A2999 RMK AO2 T02440227
KBYY 232055Z AUTO 09006KT 10SM -DZ SCT021 SCT025 BKN046 23/22 A3001 RMK AO2 P0009 T02340224
KBYY 232035Z AUTO 07006KT 4SM RA SCT027 BKN060 OVC100 22/21 A3007 RMK AO2 P0008 T02270219
KBYY 232015Z AUTO 00000KT 7SM RA SCT070 BKN100 22/22 A3008 RMK AO2 P0002 T02270219
KBYY 231955Z AUTO 00000KT 10SM -RA SCT070 BKN095 BKN120 22/21 A3003 RMK AO2 P0010 T02240218
KBYY 231935Z AUTO 35003KT 7SM -RA SCT047 BKN095 OVC110 22/22 A3003 RMK AO2 P0008 T02230219
KBYY 231915Z AUTO 09003KT 4SM RA SCT024 BKN050 OVC080 22/22 A3004 RMK AO2 P0007 T02250221
KBYY 231855Z AUTO 05007KT 1 3/4SM +RA SCT008 BKN014 OVC034 22/22 A3007 RMK AO2 P0288 T02270220
KBYY 231835Z AUTO 05013KT 1/2SM +RA OVC006 22/21 A3005 RMK AO2 P0241 T02290218
KBYY 231815Z AUTO 05010G15KT 010V070 1/4SM +RA OVC006 23/22 A3005 RMK AO2 P0108 T02330217
KBYY 231755Z AUTO 28010KT 4SM +RA OVC025 23/21 A3005 RMK AO2 P0015 T02480217
KBYY 231735Z AUTO 31010KT 5SM +RA SCT023 BKN030 BKN065 26/22 A3003 RMK AO2 P0002 T02780220
KBYY 231715Z AUTO 07009KT 10SM SCT030 SCT043 SCT060 28/22 A3003 RMK AO2 T02940228